Terminal Aerodrome Forecast
Issued by NWS

Home | Current Version | Previous Version | Graphics & Text | Print | Product List | Glossary On
Versions: 1 2 3 4 5 6 7 8 9 10 11 12 13 14 15
000
FTUS43 KMPX 020500
TAFRWF
TAF
KRWF 020540Z 0206/0306 25006KT P6SM SCT060 BKN100
     FM020700 26006KT P6SM VCSH BKN060 OVC090
     FM021100 26007KT P6SM SCT060 BKN090
     FM021500 27012KT P6SM SCT120=

USA.gov is the U.S. government's official web portal to all federal, state and local government web resources and services.